Time;durP1;ratioP1;P1;durP2;ratioP2;P2;SDS_P1;SDS_P2;PMS_P1;PMS_P2;Temp;Humidity;BMP_temperature;BMP_pressure;BME280_temperature;BME280_humidity;BME280_pressure;Samples;Min_cycle;Max_cycle;Signal;HPM_P1;HPM_P2
2021/06/26 07:12:06;;;;;;;13.40;5.80;;;;;;;19.58;80.31;100565.17;126364;1096;22895;-85
2021/06/26 07:14:35;;;;;;;13.38;5.90;;;;;;;19.62;79.80;100568.47;126580;1096;22799;-83
2021/06/26 07:17:04;;;;;;;16.98;5.45;;;;;;;19.63;79.58;100578.52;126665;1096;22859;-83
2021/06/26 07:19:33;;;;;;;13.43;5.15;;;;;;;19.58;79.61;100576.50;126973;1097;22791;-79
2021/06/26 07:22:04;;;;;;;12.93;5.98;;;;;;;19.56;79.67;100569.83;127028;1095;26337;-81
2021/06/26 07:24:33;;;;;;;15.30;6.28;;;;;;;19.51;78.97;100574.30;127726;1096;22995;-78
2021/06/26 07:27:01;;;;;;;17.08;6.08;;;;;;;19.46;78.97;100566.62;126357;1096;28342;-80
2021/06/26 07:29:30;;;;;;;10.98;5.33;;;;;;;19.46;79.21;100572.28;126611;1092;22794;-79
2021/06/26 07:31:58;;;;;;;14.77;6.00;;;;;;;19.50;79.53;100566.30;126649;1093;22762;-78
2021/06/26 07:34:27;;;;;;;14.25;5.88;;;;;;;19.55;79.90;100571.92;126629;1092;23070;-80
2021/06/26 07:36:55;;;;;;;15.35;6.03;;;;;;;19.66;79.79;100568.16;126504;1092;22764;-80
2021/06/26 07:39:24;;;;;;;12.93;4.83;;;;;;;19.75;78.65;100576.30;126423;1092;22803;-81
2021/06/26 07:41:52;;;;;;;12.23;4.45;;;;;;;19.82;78.24;100582.11;126463;1093;24017;-80
2021/06/26 07:44:22;;;;;;;14.28;5.40;;;;;;;19.92;77.98;100571.17;126505;1093;22778;-80
2021/06/26 07:46:51;;;;;;;12.70;5.70;;;;;;;20.00;77.62;100575.70;127025;1093;22748;-80
2021/06/26 07:49:21;;;;;;;12.77;5.17;;;;;;;20.09;77.59;100580.22;126939;1092;22770;-80
2021/06/26 07:51:49;;;;;;;13.98;5.18;;;;;;;20.20;76.50;100577.23;126499;1093;22778;-80
2021/06/26 07:54:18;;;;;;;14.78;4.98;;;;;;;20.26;76.85;100572.24;126484;1092;22776;-80
2021/06/26 07:56:46;;;;;;;9.20;4.25;;;;;;;20.37;76.59;100574.91;126512;1092;22779;-80
2021/06/26 07:59:15;;;;;;;15.80;4.98;;;;;;;20.49;75.93;100578.33;126580;1093;22751;-80
2021/06/26 08:01:44;;;;;;;12.90;4.68;;;;;;;20.54;75.25;100577.48;126545;1092;22788;-80
2021/06/26 08:04:12;;;;;;;9.05;4.20;;;;;;;20.56;74.80;100577.71;126522;1093;22787;-80
2021/06/26 08:06:41;;;;;;;11.50;4.70;;;;;;;20.62;75.09;100584.05;126459;1093;22877;-80
2021/06/26 08:09:09;;;;;;;13.55;5.38;;;;;;;20.72;75.00;100582.34;126413;1093;22774;-80
2021/06/26 08:11:37;;;;;;;12.90;5.35;;;;;;;20.88;74.43;100572.77;126918;1092;22904;-80
2021/06/26 08:14:06;;;;;;;12.33;4.93;;;;;;;21.00;74.21;100579.02;126908;1093;22749;-81
2021/06/26 08:16:34;;;;;;;12.95;5.15;;;;;;;21.12;73.78;100572.63;127019;1093;23035;-80
2021/06/26 08:19:03;;;;;;;10.75;4.83;;;;;;;21.27;74.62;100572.09;127018;1093;22783;-80
2021/06/26 08:21:32;;;;;;;11.40;4.80;;;;;;;21.40;74.00;100577.75;126931;1093;26270;-80
2021/06/26 08:24:00;;;;;;;14.13;4.60;;;;;;;21.49;73.14;100575.25;126461;1092;23346;-80
2021/06/26 08:26:29;;;;;;;13.40;4.75;;;;;;;21.51;72.40;100575.47;126504;1093;26236;-80
2021/06/26 08:28:58;;;;;;;10.38;3.95;;;;;;;21.48;72.05;100576.55;126993;1092;22797;-82
2021/06/26 08:31:26;;;;;;;11.18;4.90;;;;;;;21.50;72.47;100571.08;126949;1093;23043;-80
2021/06/26 08:33:55;;;;;;;12.68;5.63;;;;;;;21.50;71.51;100575.99;126510;1092;22859;-80
2021/06/26 08:36:24;;;;;;;13.03;5.80;;;;;;;21.51;71.56;100569.78;126505;1092;22777;-81
2021/06/26 08:38:52;;;;;;;11.80;4.95;;;;;;;21.51;72.03;100571.86;126512;1093;26236;-81
2021/06/26 08:41:21;;;;;;;11.93;5.45;;;;;;;21.54;71.77;100562.99;126378;1093;22797;-81
2021/06/26 08:43:50;;;;;;;13.67;5.80;;;;;;;21.59;71.72;100556.45;126326;1095;22786;-81
2021/06/26 08:46:21;;;;;;;12.63;5.30;;;;;;;21.65;71.15;100565.61;126349;1093;22770;-81
2021/06/26 08:48:50;;;;;;;11.43;4.88;;;;;;;21.63;70.01;100562.56;126480;1092;22851;-80
2021/06/26 08:51:19;;;;;;;10.88;4.65;;;;;;;21.62;70.28;100557.44;126963;1093;25414;-81
2021/06/26 08:53:48;;;;;;;14.93;5.45;;;;;;;21.65;70.02;100557.09;126839;1093;22827;-81
2021/06/26 08:56:16;;;;;;;11.73;4.35;;;;;;;21.65;69.11;100562.77;127031;1093;27213;-81
2021/06/26 08:58:47;;;;;;;9.50;4.53;;;;;;;21.63;69.42;100568.24;126404;1093;24039;-80
2021/06/26 09:01:16;;;;;;;9.90;4.08;;;;;;;21.60;68.71;100557.95;126370;1093;22778;-80
2021/06/26 09:03:47;;;;;;;12.30;5.15;;;;;;;21.57;68.76;100563.98;126862;1093;22785;-80
2021/06/26 09:06:33;;;;;;;11.88;4.68;;;;;;;21.58;68.94;100554.16;126817;1092;22774;-81
2021/06/26 09:09:03;;;;;;;11.15;3.68;;;;;;;21.62;68.08;100558.17;126810;1093;22790;-80
2021/06/26 09:11:33;;;;;;;10.58;3.43;;;;;;;21.70;67.32;100558.30;126417;1093;22755;-80
2021/06/26 09:14:02;;;;;;;6.90;2.85;;;;;;;21.71;66.99;100557.73;126952;1092;27118;-80
2021/06/26 09:16:32;;;;;;;7.90;3.03;;;;;;;21.78;67.13;100555.53;127037;1092;22810;-80
2021/06/26 09:19:11;;;;;;;8.95;3.33;;;;;;;21.85;66.31;100549.95;126932;1093;22787;-80
2021/06/26 09:21:40;;;;;;;10.40;3.45;;;;;;;21.89;66.49;100552.48;126902;1093;22851;-80
2021/06/26 09:24:11;;;;;;;7.58;3.35;;;;;;;21.98;67.20;100546.32;127008;1093;24442;-81
2021/06/26 09:26:43;;;;;;;9.88;4.20;;;;;;;22.08;66.30;100555.91;127184;1093;22844;-81
2021/06/26 09:29:14;;;;;;;7.70;2.80;;;;;;;22.15;66.24;100543.86;126933;1093;23693;-80
2021/06/26 09:31:55;;;;;;;8.05;3.10;;;;;;;22.22;65.61;100543.93;127460;1093;26869;-81
2021/06/26 09:34:40;;;;;;;8.28;3.20;;;;;;;22.27;65.19;100550.81;128181;1096;22784;-81
2021/06/26 09:37:21;;;;;;;10.05;3.05;;;;;;;22.26;65.20;100543.61;128169;1093;25604;-81
2021/06/26 09:39:58;;;;;;;7.25;2.98;;;;;;;22.22;64.69;100543.93;128106;1093;25094;-81
2021/06/26 09:42:32;;;;;;;7.73;2.55;;;;;;;22.21;65.47;100547.34;128154;1092;22775;-81
2021/06/26 09:45:06;;;;;;;10.15;3.28;;;;;;;22.19;64.74;100544.28;128477;1093;22781;-81
2021/06/26 09:47:43;;;;;;;9.15;3.18;;;;;;;22.18;65.33;100539.92;128342;1093;22822;-78
2021/06/26 09:50:17;;;;;;;9.25;3.28;;;;;;;22.17;65.19;100552.60;128016;1093;27212;-79
2021/06/26 09:52:50;;;;;;;7.25;2.88;;;;;;;22.15;64.50;100544.63;126745;1092;22826;-79
2021/06/26 09:55:31;;;;;;;8.43;2.95;;;;;;;22.15;64.22;100544.63;126840;1096;26300;-80
2021/06/26 09:58:02;;;;;;;8.50;2.93;;;;;;;22.15;64.65;100547.48;126898;1096;22941;-80
2021/06/26 10:00:33;;;;;;;7.50;2.80;;;;;;;22.17;64.47;100547.69;126535;1096;22803;-80
2021/06/26 10:03:04;;;;;;;8.40;2.75;;;;;;;22.21;65.10;100553.80;126918;1094;22827;-80
2021/06/26 10:05:34;;;;;;;8.75;3.45;;;;;;;22.24;65.21;100554.78;126950;1096;22869;-80
2021/06/26 10:08:06;;;;;;;9.98;3.58;;;;;;;22.19;65.10;100544.28;126951;1096;22989;-80
2021/06/26 10:10:36;;;;;;;12.95;3.85;;;;;;;22.13;66.08;100547.27;127011;1096;22689;-80
2021/06/26 10:13:06;;;;;;;11.28;3.75;;;;;;;22.16;65.31;100539.72;126786;1095;22756;-80
2021/06/26 10:15:36;;;;;;;10.50;3.45;;;;;;;22.20;65.06;100540.88;126811;1095;22803;-80
2021/06/26 10:18:07;;;;;;;10.10;2.88;;;;;;;22.24;64.73;100535.61;126791;1092;23231;-80
2021/06/26 10:20:40;;;;;;;10.03;3.68;;;;;;;22.30;64.68;100541.19;126933;1093;22800;-80
2021/06/26 10:23:09;;;;;;;8.75;3.23;;;;;;;22.37;64.81;100544.09;127012;1093;22873;-81
2021/06/26 10:25:40;;;;;;;9.30;3.20;;;;;;;22.43;64.57;100544.72;127117;1092;22783;-82
2021/06/26 10:28:12;;;;;;;10.33;3.63;;;;;;;22.45;63.84;100544.19;127086;1092;22922;-80
2021/06/26 10:30:41;;;;;;;8.35;3.35;;;;;;;22.47;63.43;100544.39;127082;1093;22772;-81
2021/06/26 10:33:12;;;;;;;9.50;3.55;;;;;;;22.46;63.28;100546.47;127093;1092;23210;-81
2021/06/26 10:35:53;;;;;;;9.85;3.28;;;;;;;22.50;63.00;100546.11;126908;1093;22764;-81
2021/06/26 10:38:22;;;;;;;9.43;3.15;;;;;;;22.61;62.68;100545.10;126528;1093;24475;-80
2021/06/26 10:40:52;;;;;;;8.33;3.18;;;;;;;22.63;62.29;100533.92;127249;1093;22873;-81
2021/06/26 10:43:26;;;;;;;9.85;3.75;;;;;;;22.68;62.68;100539.47;126443;1092;22777;-80
2021/06/26 10:46:09;;;;;;;9.55;3.65;;;;;;;22.76;62.01;100548.83;126418;1093;22784;-80
2021/06/26 10:48:40;;;;;;;7.33;2.80;;;;;;;22.71;61.29;100541.21;126573;1093;26344;-80
2021/06/26 10:51:10;;;;;;;7.35;2.93;;;;;;;22.68;61.50;100533.77;126936;1093;22758;-80
2021/06/26 10:53:42;;;;;;;9.93;3.20;;;;;;;22.71;61.25;100544.06;126641;1093;22951;-81
2021/06/26 10:56:14;;;;;;;8.15;3.23;;;;;;;22.72;61.70;100531.34;126909;1093;22788;-79
2021/06/26 10:58:47;;;;;;;9.58;2.73;;;;;;;22.81;60.64;100530.08;126639;1092;22902;-83
2021/06/26 11:01:21;;;;;;;6.50;2.20;;;;;;;22.91;60.33;100536.80;127224;1096;25868;-81
2021/06/26 11:04:09;;;;;;;7.73;3.10;;;;;;;22.98;59.97;100534.02;127032;1095;26286;-80
2021/06/26 11:06:39;;;;;;;7.67;2.10;;;;;;;23.08;58.98;100534.27;127090;1093;24454;-81
2021/06/26 11:09:09;;;;;;;6.40;2.50;;;;;;;23.20;59.19;100527.70;127029;1092;22833;-80
2021/06/26 11:11:40;;;;;;;8.75;2.63;;;;;;;23.26;59.38;100536.86;126467;1092;22774;-82
2021/06/26 11:14:19;;;;;;;6.63;2.10;;;;;;;23.37;58.22;100535.04;127008;1092;22807;-82
2021/06/26 11:17:00;;;;;;;6.10;2.25;;;;;;;23.43;59.57;100535.64;127089;1093;23423;-81
2021/06/26 11:19:37;;;;;;;7.45;2.50;;;;;;;23.45;59.63;100535.84;127045;1093;27183;-83
2021/06/26 11:22:08;;;;;;;7.15;2.68;;;;;;;23.48;59.98;100535.50;127108;1093;26308;-79
2021/06/26 11:24:39;;;;;;;8.90;1.80;;;;;;;23.46;60.17;100538.15;127074;1093;22809;-86
2021/06/26 11:27:20;;;;;;;9.45;2.13;;;;;;;23.40;59.83;100545.33;127023;1093;22898;-81
2021/06/26 11:29:50;;;;;;;5.43;1.88;;;;;;;23.25;60.16;100545.97;126899;1093;26995;-80
2021/06/26 11:32:22;;;;;;;;;;;;;;;23.00;60.56;100548.46;127010;1093;26018;-82
2021/06/26 11:34:55;;;;;;;4.93;1.58;;;;;;;22.81;60.97;100547.93;127141;1092;21580;-81
2021/06/26 11:37:32;;;;;;;7.83;1.80;;;;;;;22.59;61.05;100553.44;127249;1093;25603;-81
2021/06/26 11:40:01;;;;;;;4.93;1.53;;;;;;;22.37;60.91;100552.63;127235;1093;24393;-81
2021/06/26 11:42:30;;;;;;;5.98;1.40;;;;;;;22.22;61.54;100554.56;127102;1097;22845;-80
2021/06/26 11:45:17;;;;;;;3.65;1.40;;;;;;;22.09;60.45;100560.30;127101;1092;22941;-80
2021/06/26 11:48:00;;;;;;;3.38;1.03;;;;;;;21.90;60.71;100568.21;127082;1096;22792;-80
2021/06/26 11:50:33;;;;;;;7.83;2.73;;;;;;;21.71;61.66;100565.48;126916;1096;22870;-83
2021/06/26 11:53:07;;;;;;;5.33;1.38;;;;;;;21.61;61.28;100567.25;126964;1096;22884;-81
2021/06/26 11:55:49;;;;;;;5.60;1.65;;;;;;;21.49;60.84;100568.80;126986;1095;24191;-82
2021/06/26 11:58:19;;;;;;;5.40;1.40;;;;;;;21.31;62.13;100561.91;127102;1096;22776;-84
2021/06/26 12:01:27;;;;;;;7.28;1.35;;;;;;;21.25;61.14;100561.25;127139;1093;22934;-83
2021/06/26 12:04:13;;;;;;;4.15;1.28;;;;;;;21.07;61.01;100559.29;126872;1092;22873;-87
2021/06/26 12:06:41;;;;;;;3.55;1.13;;;;;;;21.00;61.40;100553.47;126884;1093;22918;-84
2021/06/26 12:09:10;;;;;;;7.25;1.70;;;;;;;20.96;61.89;100559.45;126873;1093;22770;-82
2021/06/26 12:11:42;;;;;;;6.57;1.30;;;;;;;21.00;61.56;100553.47;127159;1093;22899;-84
2021/06/26 12:14:11;;;;;;;4.60;1.40;;;;;;;21.01;61.50;100547.25;127167;1093;24293;-84
2021/06/26 12:16:40;;;;;;;4.13;1.27;;;;;;;21.02;61.85;100545.17;127151;1092;22885;-82
2021/06/26 12:19:09;;;;;;;;;;;;;;;21.07;61.76;100547.16;127179;1092;22904;-82
2021/06/26 12:21:42;;;;;;;3.95;1.10;;;;;;;21.13;61.58;100539.30;127267;1093;21594;-83
2021/06/26 12:24:12;;;;;;;7.90;1.40;;;;;;;21.12;61.58;100543.47;127093;1093;22784;-81
2021/06/26 12:26:40;;;;;;;8.73;1.53;;;;;;;21.12;61.83;100532.11;127206;1092;22869;-81
2021/06/26 12:29:09;;;;;;;3.25;1.00;;;;;;;21.11;61.01;100537.02;127267;1092;22752;-82
2021/06/26 12:31:43;;;;;;;3.65;1.28;;;;;;;21.10;61.16;100526.98;127078;1092;22797;-82
2021/06/26 12:34:12;;;;;;;2.53;0.90;;;;;;;21.11;60.86;100530.56;127253;1093;22963;-82
2021/06/26 12:36:50;;;;;;;7.87;1.20;;;;;;;21.14;60.90;100532.33;127178;1093;22777;-83
2021/06/26 12:39:21;;;;;;;2.93;0.93;;;;;;;21.19;60.26;100532.20;127129;1093;22932;-82
2021/06/26 12:42:00;;;;;;;3.30;1.00;;;;;;;21.22;60.32;100528.29;127301;1093;22859;-83
2021/06/26 12:45:00;;;;;;;4.60;1.10;;;;;;;21.30;60.35;100528.39;127135;1093;22770;-82
2021/06/26 12:47:30;;;;;;;4.28;0.93;;;;;;;21.38;59.61;100534.93;127241;1093;22770;-82
2021/06/26 12:50:08;;;;;;;5.47;1.07;;;;;;;21.44;59.87;100541.26;127400;1091;22753;-84
2021/06/26 12:52:38;;;;;;;3.85;1.00;;;;;;;21.47;59.56;100534.50;127628;1093;25928;-83
2021/06/26 12:55:19;;;;;;;3.65;1.00;;;;;;;21.50;60.16;100537.00;127372;1092;22727;-83
2021/06/26 12:57:47;;;;;;;3.43;0.90;;;;;;;21.55;59.25;100541.04;127189;1093;25754;-83
2021/06/26 13:00:22;;;;;;;3.20;1.10;;;;;;;21.58;59.70;100537.11;127184;1093;22939;-85
2021/06/26 13:02:50;;;;;;;3.08;1.20;;;;;;;21.62;60.13;100532.60;127085;1093;23740;-84
2021/06/26 13:05:21;;;;;;;6.73;1.00;;;;;;;21.73;60.17;100534.44;127029;1093;24576;-82
2021/06/26 13:08:01;;;;;;;4.50;1.00;;;;;;;21.80;60.48;100530.94;127171;1092;22760;-81
2021/06/26 13:10:30;;;;;;;4.05;1.30;;;;;;;21.86;60.01;100536.52;127325;1092;22979;-83
2021/06/26 13:12:59;;;;;;;4.80;1.13;;;;;;;21.84;60.49;100539.92;127321;1092;25109;-82
2021/06/26 13:15:30;;;;;;;3.70;1.30;;;;;;;21.83;60.16;100531.95;127197;1092;22834;-82
2021/06/26 13:18:01;;;;;;;4.70;1.20;;;;;;;21.84;59.57;100522.09;127083;1093;22835;-84
2021/06/26 13:20:31;;;;;;;4.60;1.48;;;;;;;21.86;59.93;100522.31;127208;1092;26248;-82
2021/06/26 13:22:59;;;;;;;7.03;1.63;;;;;;;21.87;59.73;100521.75;127198;1093;26357;-83
2021/06/26 13:25:34;;;;;;;4.30;1.43;;;;;;;21.88;60.08;100522.52;127373;1093;25752;-84
2021/06/26 13:28:03;;;;;;;4.18;1.50;;;;;;;21.92;60.37;100511.58;127034;1092;22868;-83
2021/06/26 13:30:32;;;;;;;4.58;1.80;;;;;;;21.99;60.78;100513.75;127400;1093;25832;-83
2021/06/26 13:33:00;;;;;;;4.63;1.60;;;;;;;22.09;60.33;100507.04;127288;1093;22778;-84
2021/06/26 13:35:30;;;;;;;5.93;1.60;;;;;;;22.14;59.86;100500.44;127297;1093;23473;-83
2021/06/26 13:37:59;;;;;;;3.40;1.35;;;;;;;22.25;59.66;100494.49;127224;1093;22716;-83
2021/06/26 13:40:27;;;;;;;6.43;1.58;;;;;;;22.34;59.01;100493.25;127127;1092;22808;-85
2021/06/26 13:42:56;;;;;;;3.48;1.30;;;;;;;22.40;58.34;100505.25;126951;1092;22966;-84
2021/06/26 13:45:25;;;;;;;5.20;1.63;;;;;;;22.44;58.33;100500.74;127077;1093;22619;-89
2021/06/26 13:47:53;;;;;;;7.48;1.90;;;;;;;22.47;58.57;100491.08;127146;1091;22778;-83
2021/06/26 13:50:22;;;;;;;5.33;1.70;;;;;;;22.52;57.69;100495.11;127100;1093;25858;-83
2021/06/26 13:52:51;;;;;;;6.48;2.03;;;;;;;22.51;57.70;100482.95;127153;1093;22793;-83
2021/06/26 13:55:19;;;;;;;7.23;2.30;;;;;;;22.49;58.36;100487.70;127326;1093;22783;-85
2021/06/26 13:57:48;;;;;;;5.83;1.90;;;;;;;22.51;59.12;100497.18;127237;1093;22767;-84
2021/06/26 14:00:19;;;;;;;6.75;2.28;;;;;;;22.51;58.93;100487.91;126954;1093;22938;-84
2021/06/26 14:02:49;;;;;;;4.85;1.75;;;;;;;22.51;59.06;100485.06;126885;1093;22854;-84
2021/06/26 14:05:17;;;;;;;7.33;2.60;;;;;;;22.45;59.17;100487.29;127027;1093;22782;-85
2021/06/26 14:07:46;;;;;;;8.03;2.23;;;;;;;22.38;59.62;100479.44;126942;1093;22772;-85
2021/06/26 14:10:14;;;;;;;5.40;2.13;;;;;;;22.43;59.90;100484.20;127088;1093;26220;-83
2021/06/26 14:12:43;;;;;;;6.33;2.65;;;;;;;22.47;59.83;100479.70;127158;1093;22814;-83
2021/06/26 14:15:27;;;;;;;6.33;2.18;;;;;;;22.51;59.59;100479.38;127038;1093;22800;-85
2021/06/26 14:18:04;;;;;;;5.20;2.30;;;;;;;22.49;59.46;100474.22;126672;1096;27387;-89
2021/06/26 14:21:06;;;;;;;7.53;2.47;;;;;;;22.52;59.75;100478.80;126843;1092;22803;-86
2021/06/26 14:27:11;;;;;;;8.20;2.25;;;;;;;22.65;59.62;100468.68;126941;1096;23166;-87
2021/06/26 14:29:46;;;;;;;6.53;2.30;;;;;;;22.72;59.57;100471.57;126943;1093;22862;-86
2021/06/26 14:32:33;;;;;;;6.53;2.30;;;;;;;22.76;59.35;100471.98;126859;1093;23511;-86
2021/06/26 14:38:19;;;;;;;7.95;1.68;;;;;;;22.87;58.44;100465.22;126873;1095;22758;-83
2021/06/26 14:40:48;;;;;;;5.73;1.90;;;;;;;22.89;58.70;100463.34;127066;1092;22775;-83
2021/06/26 14:43:16;;;;;;;4.75;1.70;;;;;;;22.92;58.35;100465.09;127034;1093;22808;-81
2021/06/26 14:45:45;;;;;;;4.40;1.50;;;;;;;22.93;57.77;100462.98;127244;1093;22852;-81
2021/06/26 14:48:14;;;;;;;7.23;1.95;;;;;;;22.98;58.56;100467.77;127039;1093;22831;-83
2021/06/26 14:50:42;;;;;;;8.65;2.50;;;;;;;23.04;57.84;100463.45;126961;1093;22771;-87
2021/06/26 14:53:14;;;;;;;5.20;2.23;;;;;;;23.08;57.87;100463.08;126942;1092;22918;-83
2021/06/26 14:55:43;;;;;;;8.03;2.35;;;;;;;23.12;57.24;100464.24;127087;1093;27491;-83
2021/06/26 14:58:12;;;;;;;5.78;2.03;;;;;;;23.12;56.93;100455.70;127204;1092;25718;-86
2021/06/26 15:00:40;;;;;;;4.93;1.70;;;;;;;23.14;56.96;100460.83;127302;1092;22810;-86
2021/06/26 15:03:09;;;;;;;5.65;1.80;;;;;;;23.16;56.93;100463.88;127348;1093;22794;-85
2021/06/26 15:05:37;;;;;;;6.10;2.10;;;;;;;23.16;56.97;100461.80;127452;1092;22748;-83
2021/06/26 15:08:06;;;;;;;8.00;2.35;;;;;;;23.16;57.05;100456.10;127288;1093;22902;-83
2021/06/26 15:10:35;;;;;;;8.38;2.40;;;;;;;23.19;56.73;100465.61;127378;1093;22812;-84
2021/06/26 15:13:03;;;;;;;8.13;2.50;;;;;;;23.21;56.74;100466.58;127215;1092;26072;-84
2021/06/26 15:15:34;;;;;;;7.13;3.00;;;;;;;23.22;56.87;100468.09;127317;1093;22854;-82
2021/06/26 15:18:03;;;;;;;7.10;3.03;;;;;;;23.28;56.66;100468.69;127074;1092;22753;-82
2021/06/26 15:20:32;;;;;;;7.30;2.88;;;;;;;23.28;56.68;100468.69;127096;1093;22938;-82
2021/06/26 15:23:00;;;;;;;7.40;2.90;;;;;;;23.29;56.82;100460.91;127179;1093;24451;-82
2021/06/26 15:25:29;;;;;;;7.70;2.53;;;;;;;23.33;56.94;100454.88;127212;1096;22785;-85
2021/06/26 15:27:58;;;;;;;6.95;2.60;;;;;;;23.31;56.00;100450.48;126807;1092;83262;-63
2021/06/26 15:30:26;;;;;;;8.75;2.55;;;;;;;23.25;56.23;100457.67;125782;1093;22774;-62
2021/06/26 15:32:55;;;;;;;8.20;2.70;;;;;;;23.20;56.97;100450.80;125786;1092;22777;-62
2021/06/26 15:35:24;;;;;;;7.00;2.80;;;;;;;23.19;56.59;100446.45;126256;1093;22764;-61
2021/06/26 15:37:54;;;;;;;8.03;2.40;;;;;;;23.20;56.74;100444.34;126017;1093;22776;-62
2021/06/26 15:40:25;;;;;;;6.13;2.43;;;;;;;23.20;56.84;100456.50;125711;1093;22918;-63
2021/06/26 15:42:54;;;;;;;7.60;2.70;;;;;;;23.24;56.71;100442.66;125871;1093;22770;-62
2021/06/26 15:45:23;;;;;;;7.03;2.50;;;;;;;23.22;56.16;100439.61;125780;1093;22931;-61
2021/06/26 15:47:52;;;;;;;10.83;3.47;;;;;;;23.18;56.40;100441.29;125730;1093;22771;-61
2021/06/26 15:50:21;;;;;;;8.15;2.78;;;;;;;23.16;56.32;100429.70;126272;1093;22854;-62
2021/06/26 15:52:52;;;;;;;7.33;2.90;;;;;;;23.17;56.42;100434.83;125626;1093;22847;-64
2021/06/26 15:55:21;;;;;;;7.10;2.70;;;;;;;23.15;56.30;100434.63;125463;1093;22847;-62
2021/06/26 15:57:50;;;;;;;9.05;3.10;;;;;;;23.15;55.92;100434.63;125665;1092;25887;-62
2021/06/26 16:00:20;;;;;;;9.40;3.25;;;;;;;23.17;56.41;100431.23;125856;1093;23461;-64
2021/06/26 16:02:49;;;;;;;8.70;2.30;;;;;;;23.15;55.70;100433.89;125943;1093;22845;-61
2021/06/26 16:05:18;;;;;;;7.43;2.33;;;;;;;23.17;55.80;100434.08;125805;1093;22770;-62
2021/06/26 16:07:48;;;;;;;6.23;2.13;;;;;;;23.18;55.74;100438.44;125695;1093;27728;-63
2021/06/26 16:10:17;;;;;;;4.30;1.50;;;;;;;23.16;55.39;100435.39;125629;1093;24451;-64
2021/06/26 16:12:47;;;;;;;5.10;1.80;;;;;;;23.14;56.01;100438.81;125606;1093;25820;-62
2021/06/26 16:15:16;;;;;;;5.43;2.08;;;;;;;23.17;55.54;100434.83;125592;1093;27169;-64
2021/06/26 16:17:47;;;;;;;6.28;1.95;;;;;;;23.15;55.41;100434.63;125928;1093;22858;-64
2021/06/26 16:55:36;;;;;;;7.68;2.55;;;;;;;23.27;55.75;100430.15;125907;1092;22786;-62
2021/06/26 16:58:08;;;;;;;10.38;3.35;;;;;;;23.26;56.33;100422.91;125803;1093;25890;-59
2021/06/26 17:00:39;;;;;;;8.35;2.68;;;;;;;23.31;55.78;100424.84;125868;1093;22761;-60
2021/06/26 17:03:10;;;;;;;8.17;3.60;;;;;;;23.31;55.63;100426.92;125731;1093;22770;-61
2021/06/26 17:05:42;;;;;;;7.98;2.98;;;;;;;23.31;55.51;100419.15;125787;1093;22791;-61
2021/06/26 17:08:16;;;;;;;9.23;2.93;;;;;;;23.30;55.46;100420.46;125808;1093;26273;-61
2021/06/26 17:10:50;;;;;;;7.93;3.48;;;;;;;23.39;55.47;100415.58;125899;1093;22770;-61
2021/06/26 17:13:22;;;;;;;7.00;3.15;;;;;;;23.53;55.44;100414.09;125853;1093;25862;-62
2021/06/26 17:15:55;;;;;;;8.88;3.35;;;;;;;23.65;55.34;100415.30;125775;1093;27402;-66
2021/06/26 17:18:28;;;;;;;10.93;3.70;;;;;;;23.72;55.64;100417.39;125784;1091;22785;-58
2021/06/26 17:21:00;;;;;;;8.65;3.35;;;;;;;23.78;55.60;100415.12;125779;1091;22754;-63
2021/06/26 17:23:32;;;;;;;8.78;3.50;;;;;;;23.85;55.43;100423.70;125787;1093;22762;-62
2021/06/26 17:26:04;;;;;;;11.23;3.83;;;;;;;23.94;54.89;100428.09;125740;1092;24421;-63
2021/06/26 17:28:38;;;;;;;9.38;4.08;;;;;;;24.01;54.96;100425.23;125781;1093;22772;-61
2021/06/26 17:31:10;;;;;;;8.28;3.58;;;;;;;24.08;55.32;100418.80;125875;1093;22817;-61
2021/06/26 17:33:42;;;;;;;9.23;3.15;;;;;;;24.15;55.33;100419.39;125807;1093;22754;-61
2021/06/26 17:36:13;;;;;;;8.58;3.05;;;;;;;24.16;55.01;100421.67;125798;1093;24461;-63
2021/06/26 17:38:45;;;;;;;6.30;2.90;;;;;;;24.19;54.91;100420.52;125737;1093;22761;-63
2021/06/26 17:41:17;;;;;;;8.53;3.23;;;;;;;24.20;54.78;100421.28;125767;1093;25861;-62
2021/06/26 17:43:48;;;;;;;6.35;2.53;;;;;;;24.18;54.83;100424.71;125882;1093;22784;-61
2021/06/26 17:46:20;;;;;;;7.03;3.10;;;;;;;24.11;54.93;100428.31;125687;1093;22809;-62
2021/06/26 17:48:52;;;;;;;8.35;3.00;;;;;;;24.07;54.95;100425.84;125728;1093;24422;-62
2021/06/26 17:51:25;;;;;;;8.23;3.10;;;;;;;24.08;55.24;100427.35;126183;1092;23374;-63
2021/06/26 17:53:56;;;;;;;7.65;2.90;;;;;;;24.12;55.24;100429.84;125879;1093;36695;-62
2021/06/26 17:56:28;;;;;;;9.85;4.05;;;;;;;24.11;55.03;100431.16;125577;1095;24432;-62
2021/06/26 17:59:00;;;;;;;9.50;3.45;;;;;;;24.11;55.38;100438.98;125718;1096;26574;-62
2021/06/26 18:01:31;;;;;;;7.15;3.00;;;;;;;24.15;55.66;100428.69;125882;1096;22825;-62
2021/06/26 18:04:03;;;;;;;8.83;3.10;;;;;;;24.18;55.47;100427.56;125669;1095;22751;-62
2021/06/26 18:06:34;;;;;;;14.40;4.88;;;;;;;24.25;55.41;100426.79;125678;1096;22728;-62
2021/06/26 18:09:06;;;;;;;10.65;4.38;;;;;;;24.29;55.52;100429.28;125757;1095;24426;-60
2021/06/26 18:11:39;;;;;;;8.28;3.58;;;;;;;24.28;55.40;100428.52;126049;1096;22751;-63
2021/06/26 18:14:14;;;;;;;10.95;4.13;;;;;;;24.27;55.26;100426.98;125837;1096;24467;-63
2021/06/26 18:16:46;;;;;;;9.63;3.73;;;;;;;24.23;55.76;100428.72;125602;1096;22794;-61
2021/06/26 18:19:18;;;;;;;8.58;3.43;;;;;;;24.18;55.68;100435.36;126057;1096;25551;-61
2021/06/26 18:21:50;;;;;;;9.65;3.05;;;;;;;24.09;55.63;100439.53;125591;1095;22767;-62
2021/06/26 18:24:22;;;;;;;7.10;2.98;;;;;;;23.96;55.42;100442.55;125640;1096;25875;-63
2021/06/26 18:26:53;;;;;;;10.63;2.60;;;;;;;23.82;55.25;100444.02;125649;1096;27396;-64
2021/06/26 18:29:25;;;;;;;6.70;2.55;;;;;;;23.64;55.00;100447.96;125721;1096;24192;-64
2021/06/26 18:31:57;;;;;;;8.13;3.38;;;;;;;23.47;55.49;100453.41;125691;1096;22856;-64
2021/06/26 18:34:29;;;;;;;6.85;3.00;;;;;;;23.31;55.86;100464.73;125601;1096;23446;-64
2021/06/26 18:37:01;;;;;;;9.65;3.50;;;;;;;23.22;56.26;100455.93;125746;1096;28500;-63
2021/06/26 18:39:32;;;;;;;7.53;3.10;;;;;;;23.14;56.78;100461.59;126051;1096;22797;-63
2021/06/26 18:42:04;;;;;;;7.90;3.00;;;;;;;23.04;56.73;100462.67;125623;1095;25855;-64
2021/06/26 18:44:36;;;;;;;9.90;3.03;;;;;;;22.89;56.87;100460.50;125614;1094;22802;-63
2021/06/26 18:47:08;;;;;;;9.48;3.50;;;;;;;22.81;57.37;100468.23;126420;1095;24458;-63
2021/06/26 18:49:40;;;;;;;7.60;3.20;;;;;;;22.70;57.35;100459.98;125581;1096;22794;-63
2021/06/26 18:52:13;;;;;;;9.20;3.60;;;;;;;22.61;57.54;100471.12;125611;1096;26257;-63
2021/06/26 18:54:44;;;;;;;8.98;2.90;;;;;;;22.51;58.05;100476.52;125703;1096;38624;-64
2021/06/26 18:57:17;;;;;;;9.18;3.48;;;;;;;22.39;58.04;100472.41;126234;1096;22796;-68
2021/06/26 18:59:48;;;;;;;7.53;3.40;;;;;;;22.28;58.38;100478.41;125719;1096;22783;-69
2021/06/26 19:02:20;;;;;;;9.15;3.98;;;;;;;22.20;58.34;100480.42;126307;1095;22790;-69
2021/06/26 19:04:52;;;;;;;8.90;3.75;;;;;;;22.11;58.56;100478.81;126290;1096;27211;-71
2021/06/26 19:07:24;;;;;;;11.05;4.60;;;;;;;21.97;58.87;100468.83;126337;1095;26223;-69
2021/06/26 19:09:57;;;;;;;9.18;3.75;;;;;;;21.89;59.16;100472.90;126222;1094;22844;-68
2021/06/26 19:12:28;;;;;;;8.20;3.68;;;;;;;21.75;59.36;100481.44;126273;1096;27233;-68
2021/06/26 19:14:59;;;;;;;9.28;4.15;;;;;;;21.60;59.74;100477.66;126247;1095;27204;-71
2021/06/26 19:17:31;;;;;;;9.35;4.25;;;;;;;21.52;60.21;100480.40;126374;1095;26307;-68
2021/06/26 19:20:03;;;;;;;10.63;4.08;;;;;;;21.45;60.46;100468.95;126266;1096;27166;-68
2021/06/26 19:22:34;;;;;;;10.98;4.10;;;;;;;21.32;60.57;100481.09;126502;1095;26286;-67
2021/06/26 19:25:08;;;;;;;10.20;4.08;;;;;;;21.26;60.60;100474.00;125613;1096;22848;-65
2021/06/26 19:27:40;;;;;;;9.10;3.83;;;;;;;21.17;61.00;100478.05;126272;1096;22861;-61
2021/06/26 19:30:14;;;;;;;11.28;4.38;;;;;;;21.08;61.31;100469.22;125645;1096;25957;-60